Flatonia, Texas
Current Conditions -  °F | °C
As of 10:15 PM on Sunday 25 Jan 2015 (Local Time) from K3T5 Reporting Station
Clear Clear  
Wind Chill: 54°   Ceiling: Unl
Heat Index: 54°   Visibility: 10mi
Dew Point: 36°   Wind: 6mph
Humidity: 49%   Direction: 320°NW
Pressure: 30.15"   Gusts: NA
Location:  29.69°N, 97.11°W
Report Text: K3T5 260415Z AUTO 32005KT 10SM CLR 12/02 A3015 RMK AO2 T01240020
Loading
Personal Weather Stations






























Interactive Weather Map New forecast layout! Learn more

10-Day Weather Forecast

Advertisements
Track Severe Weather on mobile